Time;durP1;ratioP1;P1;durP2;ratioP2;P2;SDS_P1;SDS_P2;PMS_P1;PMS_P2;Temp;Humidity;BMP_temperature;BMP_pressure;BME280_temperature;BME280_humidity;BME280_pressure;Samples;Min_cycle;Max_cycle;Signal;HPM_P1;HPM_P2
2023/04/14 00:00:35;;;;;;;18.23;12.30;;;;;;;8.23;80.60;99489.12;1707202;84;27278;-54
2023/04/14 00:03:04;;;;;;;18.92;12.75;;;;;;;8.22;81.29;99492.12;1707190;84;25410;-51
2023/04/14 00:05:33;;;;;;;19.50;12.98;;;;;;;8.20;81.21;99490.30;1707199;84;25454;-52
2023/04/14 00:08:00;;;;;;;21.42;13.48;;;;;;;8.19;81.20;99496.81;1707166;83;25443;-51
2023/04/14 00:10:27;;;;;;;18.62;12.23;;;;;;;8.16;81.12;99498.77;1685028;84;25486;-50
2023/04/14 00:12:54;;;;;;;17.85;12.25;;;;;;;8.14;81.60;99505.81;1707203;84;27387;-52
2023/04/14 00:15:21;;;;;;;19.37;13.38;;;;;;;8.11;81.38;99496.22;1707123;84;25623;-50
2023/04/14 00:17:47;;;;;;;21.40;13.53;;;;;;;8.09;81.42;99501.10;1707211;84;25532;-52
2023/04/14 00:20:13;;;;;;;20.37;13.40;;;;;;;8.06;81.35;99499.05;1707110;84;25616;-50
2023/04/14 00:22:39;;;;;;;22.00;13.68;;;;;;;8.02;81.46;99500.23;1706908;83;25674;-51
2023/04/14 00:25:07;;;;;;;20.20;13.15;;;;;;;7.99;81.62;99494.11;1706057;84;27330;-51
2023/04/14 00:27:33;;;;;;;21.27;13.80;;;;;;;7.96;81.23;99493.38;1706261;83;26039;-50
2023/04/14 00:29:59;;;;;;;19.02;12.80;;;;;;;7.92;81.33;99497.81;1707185;84;25548;-50
2023/04/14 00:32:26;;;;;;;22.48;13.28;;;;;;;7.88;81.38;99498.95;1707154;84;25415;-48
2023/04/14 00:34:52;;;;;;;19.23;13.10;;;;;;;7.85;81.04;99499.60;1707217;84;32856;-50
2023/04/14 00:37:18;;;;;;;18.30;12.73;;;;;;;7.80;80.89;99501.87;1707154;84;27319;-48
2023/04/14 00:39:44;;;;;;;18.62;12.78;;;;;;;7.79;80.92;99500.83;1707073;84;25598;-48
2023/04/14 00:42:10;;;;;;;21.25;12.75;;;;;;;7.74;81.04;99496.92;1707187;84;25510;-50
2023/04/14 00:44:36;;;;;;;19.35;12.40;;;;;;;7.69;81.18;99499.19;1707118;83;25444;-49
2023/04/14 00:47:03;;;;;;;22.25;12.98;;;;;;;7.66;81.25;99493.07;1707205;84;25451;-50
2023/04/14 00:49:30;;;;;;;18.40;13.10;;;;;;;7.62;81.42;99498.28;1685250;84;27461;-52
2023/04/14 00:51:57;;;;;;;21.45;13.22;;;;;;;7.60;82.30;99487.59;1707064;84;25382;-52
2023/04/14 00:54:25;;;;;;;19.05;11.83;;;;;;;7.57;81.70;99485.52;1707151;81;25415;-49
2023/04/14 00:56:54;;;;;;;20.10;13.25;;;;;;;7.53;81.79;99484.55;1707157;84;25917;-52
2023/04/14 00:59:21;;;;;;;22.25;13.15;;;;;;;7.49;82.18;99484.34;1707365;84;25635;-50
2023/04/14 01:01:47;;;;;;;20.20;13.35;;;;;;;7.44;82.33;99483.94;1707153;84;27254;-48
2023/04/14 01:04:15;;;;;;;19.77;13.13;;;;;;;7.39;82.36;99478.69;1707031;84;25535;-49
2023/04/14 01:06:41;;;;;;;24.90;14.00;;;;;;;7.37;82.30;99483.59;1707188;84;25494;-49
2023/04/14 01:09:09;;;;;;;20.15;14.03;;;;;;;7.35;82.41;99480.95;1707055;84;25644;-49
2023/04/14 01:12:07;;;;;;;23.32;12.75;;;;;;;7.32;82.54;99478.87;1707174;84;25589;-48
2023/04/14 01:14:57;;;;;;;16.32;9.40;;;;;;;7.30;82.77;99485.89;1706953;84;27415;-51
2023/04/14 01:17:44;;;;;;;21.77;12.53;;;;;;;7.25;82.73;99479.30;1707086;84;27244;-50
2023/04/14 01:20:29;;;;;;;19.67;12.47;;;;;;;7.23;82.95;99481.50;1707155;84;25486;-52
2023/04/14 01:23:08;;;;;;;23.10;13.28;;;;;;;7.23;83.28;99488.23;1707147;83;25580;-49
2023/04/14 01:25:56;;;;;;;;;;;;;;;7.20;83.26;99490.17;1709753;84;25453;-50
2023/04/14 01:29:00;;;;;;;23.10;13.28;;;;;;;7.16;83.73;99489.21;1707064;83;27329;-50
2023/04/14 01:32:04;;;;;;;21.48;13.98;;;;;;;7.15;84.07;99492.98;1684924;84;25484;-49
2023/04/14 01:34:44;;;;;;;22.58;13.55;;;;;;;7.10;84.12;99492.58;1707114;84;25553;-50
2023/04/14 01:37:15;;;;;;;20.00;14.23;;;;;;;7.05;83.81;99500.20;1707239;83;25456;-49
2023/04/14 01:39:53;;;;;;;21.55;13.65;;;;;;;7.01;83.68;99503.24;1707237;84;25546;-53
2023/04/14 01:42:25;;;;;;;21.82;12.58;;;;;;;6.98;83.75;99509.25;1707121;84;29644;-49
2023/04/14 01:44:56;;;;;;;19.65;12.75;;;;;;;6.93;83.93;99499.95;1707098;84;25671;-52
2023/04/14 01:47:25;;;;;;;23.92;13.78;;;;;;;6.92;84.19;99510.45;1684870;84;25663;-50
2023/04/14 01:49:54;;;;;;;18.98;12.43;;;;;;;6.90;84.18;99505.94;1684959;84;25665;-51
2023/04/14 01:52:23;;;;;;;20.10;12.80;;;;;;;6.87;84.48;99505.19;1662148;84;33012;-49
2023/04/14 01:54:52;;;;;;;20.50;11.95;;;;;;;6.87;84.60;99510.56;1736865;81;27329;-48
2023/04/14 01:57:21;;;;;;;22.13;13.53;;;;;;;6.85;84.92;99506.05;1727885;82;25704;-49
2023/04/14 01:59:51;;;;;;;21.85;12.60;;;;;;;6.85;84.77;99507.39;1740606;82;25609;-49
2023/04/14 02:02:20;;;;;;;19.02;12.23;;;;;;;6.81;84.23;99512.58;1740444;82;25851;-49
2023/04/14 02:04:48;;;;;;;21.73;12.82;;;;;;;6.76;83.93;99505.98;1740669;82;25627;-49
2023/04/14 02:07:18;;;;;;;17.87;11.73;;;;;;;6.70;83.62;99508.52;1740451;82;27297;-49
2023/04/14 02:09:46;;;;;;;25.02;12.18;;;;;;;6.64;83.73;99506.50;1740412;82;27167;-50
2023/04/14 02:12:13;;;;;;;22.10;13.20;;;;;;;6.59;84.18;99509.30;1740463;82;25450;-49
2023/04/14 02:14:44;;;;;;;19.55;12.85;;;;;;;6.57;84.30;99508.77;1740438;82;25625;-49
2023/04/14 02:17:13;;;;;;;17.87;11.28;;;;;;;6.55;84.30;99512.31;1740505;82;25409;-50
2023/04/14 02:19:43;;;;;;;24.15;12.37;;;;;;;6.53;84.77;99511.27;1740528;82;27305;-49
2023/04/14 02:22:10;;;;;;;20.12;13.35;;;;;;;6.50;84.68;99508.39;1727696;82;25632;-50
2023/04/14 02:24:36;;;;;;;19.55;12.28;;;;;;;6.49;85.00;99506.81;1740465;82;25609;-49
2023/04/14 02:27:17;;;;;;;22.15;12.10;;;;;;;6.45;85.03;99513.87;1727764;82;25620;-52
2023/04/14 02:29:47;;;;;;;19.30;11.95;;;;;;;6.43;85.20;99509.35;1727835;82;25728;-49
2023/04/14 02:32:27;;;;;;;19.70;12.82;;;;;;;6.41;85.39;99503.49;1740192;81;27456;-52
2023/04/14 02:35:15;;;;;;;20.68;12.80;;;;;;;6.40;85.31;99505.91;1727579;82;25573;-51
2023/04/14 02:37:49;;;;;;;22.25;12.43;;;;;;;6.38;85.63;99506.77;1740523;82;25601;-52
2023/04/14 02:40:30;;;;;;;18.90;12.63;;;;;;;6.35;85.64;99504.94;1740629;82;25560;-50
2023/04/14 02:43:04;;;;;;;21.05;12.70;;;;;;;6.33;85.43;99505.79;1739940;81;25414;-48
2023/04/14 02:45:33;;;;;;;20.70;13.30;;;;;;;6.31;85.04;99513.89;1740610;82;29526;-50
2023/04/14 02:48:05;;;;;;;14.58;8.98;;;;;;;6.29;85.17;99513.39;1727968;82;27149;-48
2023/04/14 02:50:33;;;;;;;22.67;13.10;;;;;;;6.26;85.30;99509.95;1740445;81;25455;-49
2023/04/14 02:53:02;;;;;;;23.15;14.23;;;;;;;6.25;85.80;99505.14;1740548;82;25544;-50
2023/04/14 02:55:30;;;;;;;23.45;15.13;;;;;;;6.24;85.72;99502.20;1740623;82;25635;-48
2023/04/14 02:57:59;;;;;;;25.08;15.03;;;;;;;6.22;85.84;99504.39;1740620;82;27947;-51
2023/04/14 03:00:26;;;;;;;23.33;14.40;;;;;;;6.23;86.27;99503.31;1740812;82;25559;-52
2023/04/14 03:02:53;;;;;;;25.25;14.15;;;;;;;6.22;86.01;99506.29;1740632;82;25458;-51
2023/04/14 03:05:21;;;;;;;28.10;15.05;;;;;;;6.21;86.20;99509.50;1740603;82;26177;-49
2023/04/14 03:07:51;;;;;;;27.37;14.25;;;;;;;6.21;86.01;99508.16;1740703;82;25587;-49
2023/04/14 03:10:19;;;;;;;23.95;15.48;;;;;;;6.19;85.66;99509.56;1740752;82;28120;-51
2023/04/14 03:12:47;;;;;;;25.12;15.30;;;;;;;6.15;86.00;99508.81;1740525;82;25442;-49
2023/04/14 03:15:15;;;;;;;26.00;15.55;;;;;;;6.15;85.54;99512.05;1740619;82;25436;-50
2023/04/14 03:17:46;;;;;;;24.10;14.07;;;;;;;6.12;85.77;99520.15;1740574;82;25941;-51
2023/04/14 03:20:18;;;;;;;24.50;14.50;;;;;;;6.09;85.86;99520.73;1740678;82;25382;-51
2023/04/14 03:22:44;;;;;;;25.52;14.73;;;;;;;6.06;85.68;99517.33;1740376;81;28915;-48
2023/04/14 03:25:11;;;;;;;25.27;13.38;;;;;;;6.05;85.76;99518.97;1740516;82;25755;-49
2023/04/14 03:27:39;;;;;;;19.27;12.98;;;;;;;6.04;86.14;99518.15;1740580;82;25395;-49
2023/04/14 03:30:10;;;;;;;23.60;14.58;;;;;;;6.05;86.75;99519.75;1740614;82;25879;-49
2023/04/14 03:32:40;;;;;;;30.27;15.48;;;;;;;6.05;87.02;99514.38;1740647;82;25545;-49
2023/04/14 03:35:09;;;;;;;25.15;15.08;;;;;;;6.08;87.35;99513.80;1740641;82;27950;-52
2023/04/14 03:37:39;;;;;;;24.40;14.78;;;;;;;6.14;88.25;99517.95;1740532;82;25390;-49
2023/04/14 03:40:10;;;;;;;22.95;14.33;;;;;;;6.19;88.84;99513.04;1740624;82;25546;-48
2023/04/14 03:42:43;;;;;;;22.65;14.23;;;;;;;6.26;89.30;99519.36;1740581;82;25620;-49
2023/04/14 03:45:10;;;;;;;27.00;15.23;;;;;;;6.31;90.19;99522.73;1740423;81;25354;-51
2023/04/14 03:47:36;;;;;;;29.05;15.88;;;;;;;6.37;90.10;99524.78;1738566;82;27307;-49
2023/04/14 03:50:08;;;;;;;29.77;16.82;;;;;;;6.43;90.16;99525.47;1740466;82;25601;-49
2023/04/14 03:52:37;;;;;;;27.95;15.68;;;;;;;6.49;90.39;99528.31;1740637;82;25617;-49
2023/04/14 03:55:07;;;;;;;25.30;14.55;;;;;;;6.54;90.64;99529.00;1726171;82;25567;-49
2023/04/14 03:57:36;;;;;;;23.07;14.35;;;;;;;6.61;90.94;99527.80;1738233;82;25576;-50
2023/04/14 04:00:07;;;;;;;24.95;14.73;;;;;;;6.65;91.18;99529.57;1738381;82;27359;-51
2023/04/14 04:02:35;;;;;;;29.80;16.57;;;;;;;6.73;91.41;99539.61;1721980;82;25424;-50
2023/04/14 04:05:06;;;;;;;27.73;16.57;;;;;;;6.79;91.61;99538.16;1725543;82;25584;-52
2023/04/14 04:07:35;;;;;;;29.80;16.80;;;;;;;6.85;91.78;99537.75;1738160;82;25890;-52
2023/04/14 04:10:05;;;;;;;32.90;16.17;;;;;;;6.91;91.79;99539.77;1738395;82;25399;-52
2023/04/14 04:12:33;;;;;;;27.40;14.70;;;;;;;6.97;92.23;99543.16;1738237;82;27458;-52
2023/04/14 04:15:00;;;;;;;26.45;15.15;;;;;;;7.01;91.96;99542.23;1738102;82;25927;-48
2023/04/14 04:17:30;;;;;;;26.77;15.83;;;;;;;7.05;92.03;99543.23;1738159;82;25893;-50
2023/04/14 04:20:00;;;;;;;29.37;16.17;;;;;;;7.10;92.09;99544.46;1738225;82;25617;-50
2023/04/14 04:22:29;;;;;;;30.88;16.32;;;;;;;7.17;92.13;99545.39;1738231;82;25608;-48
2023/04/14 04:24:57;;;;;;;28.87;15.85;;;;;;;7.22;92.28;99546.62;1725921;82;27218;-50
2023/04/14 04:27:24;;;;;;;26.42;16.25;;;;;;;7.27;92.37;99542.98;1738134;82;25633;-51
2023/04/14 04:29:50;;;;;;;29.05;16.50;;;;;;;7.32;92.32;99549.63;1738133;82;25535;-49
2023/04/14 04:32:16;;;;;;;27.80;15.90;;;;;;;7.37;92.46;99550.03;1725410;82;25438;-51
2023/04/14 04:34:43;;;;;;;31.30;16.67;;;;;;;7.40;92.32;99551.56;1725608;82;25588;-49
2023/04/14 04:37:10;;;;;;;25.02;15.58;;;;;;;7.43;92.63;99545.58;1725489;82;28053;-52
2023/04/14 04:39:37;;;;;;;27.48;16.37;;;;;;;7.47;92.49;99549.27;1725604;82;25644;-49
2023/04/14 04:42:05;;;;;;;27.60;16.42;;;;;;;7.51;92.69;99551.31;1738186;82;25423;-48
2023/04/14 04:44:33;;;;;;;28.07;14.60;;;;;;;7.54;92.70;99556.88;1725787;82;25554;-49
2023/04/14 04:47:00;;;;;;;28.23;15.80;;;;;;;7.56;92.95;99549.84;1738194;82;25647;-50
2023/04/14 04:49:27;;;;;;;25.45;14.87;;;;;;;7.61;92.78;99561.30;1738159;81;27242;-49
2023/04/14 04:51:55;;;;;;;28.10;15.90;;;;;;;7.65;92.92;99560.14;1725443;82;25560;-51
2023/04/14 04:54:21;;;;;;;26.95;15.55;;;;;;;7.71;93.10;99565.62;1728043;81;25477;-50
2023/04/14 04:56:47;;;;;;;27.77;15.35;;;;;;;7.77;93.18;99560.92;1707217;83;35119;-48
2023/04/14 04:59:14;;;;;;;24.65;14.78;;;;;;;7.84;93.29;99566.66;1707229;84;25575;-50
2023/04/14 05:01:40;;;;;;;25.48;14.90;;;;;;;7.87;93.06;99568.74;1707135;84;27954;-49
2023/04/14 05:04:07;;;;;;;26.02;13.35;;;;;;;7.92;93.19;99559.75;1707063;83;25443;-51
2023/04/14 05:06:36;;;;;;;27.37;15.43;;;;;;;7.99;93.21;99564.14;1707212;84;25453;-50
2023/04/14 05:09:03;;;;;;;;;;;;;;;8.01;92.99;99566.75;1709635;84;25637;-52
2023/04/14 05:11:31;;;;;;;22.45;13.48;;;;;;;8.04;93.43;99559.96;1707259;84;25449;-49
2023/04/14 05:13:57;;;;;;;24.63;13.72;;;;;;;8.03;92.93;99558.36;1684945;84;27396;-50
2023/04/14 05:16:24;;;;;;;21.77;13.70;;;;;;;8.07;93.24;99559.34;1707045;84;25450;-53
2023/04/14 05:18:51;;;;;;;25.12;13.22;;;;;;;8.13;93.16;99561.34;1707127;83;25557;-50
2023/04/14 05:21:18;;;;;;;25.75;14.47;;;;;;;8.16;93.34;99556.12;1707138;84;25935;-51
2023/04/14 05:23:46;;;;;;;22.75;17.10;;;;;;;8.23;93.46;99561.07;1707170;83;25542;-50
2023/04/14 05:26:13;;;;;;;19.65;12.30;;;;;;;8.23;93.22;99563.20;1707171;83;27335;-49
2023/04/14 05:28:40;;;;;;;20.27;11.95;;;;;;;8.29;93.25;99554.98;1707028;84;25391;-50
2023/04/14 05:31:07;;;;;;;20.35;12.33;;;;;;;8.33;93.46;99558.09;1707149;84;25541;-53
2023/04/14 05:33:35;;;;;;;21.40;12.18;;;;;;;8.39;93.41;99568.17;1707107;84;25582;-51
2023/04/14 05:36:01;;;;;;;19.75;12.58;;;;;;;8.47;93.51;99566.66;1707177;84;25529;-50
2023/04/14 05:38:28;;;;;;;20.75;12.78;;;;;;;8.52;93.46;99563.27;1707147;84;27790;-50
2023/04/14 05:40:54;;;;;;;20.05;12.45;;;;;;;8.60;93.72;99564.41;1706939;84;27219;-50
2023/04/14 05:43:20;;;;;;;21.27;13.05;;;;;;;8.70;94.02;99563.30;1707222;84;25463;-51
2023/04/14 05:45:47;;;;;;;24.47;14.58;;;;;;;8.82;94.14;99564.85;1707094;84;25443;-52
2023/04/14 05:48:15;;;;;;;23.40;13.60;;;;;;;8.87;93.61;99567.40;1707162;84;25568;-49
2023/04/14 05:50:42;;;;;;;19.77;12.45;;;;;;;8.94;93.34;99565.59;1707134;84;27381;-49
2023/04/14 05:53:08;;;;;;;20.45;12.50;;;;;;;9.00;93.07;99572.39;1707099;84;25400;-51
2023/04/14 05:55:34;;;;;;;21.37;13.10;;;;;;;9.08;93.16;99570.27;1729805;81;25623;-49
2023/04/14 05:58:00;;;;;;;21.48;12.05;;;;;;;9.16;93.15;99566.79;1740467;82;27496;-49
2023/04/14 06:00:28;;;;;;;20.40;12.50;;;;;;;9.23;92.68;99573.59;1740529;82;25390;-52
2023/04/14 06:02:54;;;;;;;21.33;12.30;;;;;;;9.28;92.37;99566.69;1740508;82;27534;-50
2023/04/14 06:05:23;;;;;;;17.60;10.72;;;;;;;9.33;92.20;99567.88;1740366;82;25434;-50
2023/04/14 06:07:48;;;;;;;18.62;11.83;;;;;;;9.37;91.66;99576.16;1740430;81;25442;-50
2023/04/14 06:10:15;;;;;;;16.35;10.28;;;;;;;9.41;91.65;99573.05;1740385;82;25370;-51
2023/04/14 06:12:41;;;;;;;16.15;10.88;;;;;;;9.50;92.18;99575.17;1740521;82;25600;-50
2023/04/14 06:15:08;;;;;;;14.65;9.70;;;;;;;9.63;92.19;99578.83;1740667;82;27331;-49
2023/04/14 06:17:34;;;;;;;14.60;9.75;;;;;;;9.73;92.11;99582.55;1740589;82;25389;-49
2023/04/14 06:20:01;;;;;;;16.40;10.13;;;;;;;9.82;91.30;99586.58;1740643;82;30325;-50
2023/04/14 06:22:31;;;;;;;11.35;8.53;;;;;;;9.93;91.15;99589.73;1740599;82;25402;-49
2023/04/14 06:24:56;;;;;;;15.48;9.00;;;;;;;10.00;90.46;99590.84;1740197;81;25463;-50
2023/04/14 06:27:23;;;;;;;11.40;8.33;;;;;;;10.10;90.31;99591.05;1740670;82;27506;-50
2023/04/14 06:29:51;;;;;;;12.45;8.60;;;;;;;10.25;90.75;99591.09;1740530;82;25465;-51
2023/04/14 06:32:19;;;;;;;13.40;8.88;;;;;;;10.38;89.62;99581.20;1740675;82;25386;-50
2023/04/14 06:34:49;;;;;;;11.85;8.28;;;;;;;10.58;90.02;99586.44;1740640;82;25575;-48
2023/04/14 06:37:15;;;;;;;11.30;7.35;;;;;;;10.79;89.20;99585.12;1740648;82;25368;-50
2023/04/14 06:39:42;;;;;;;10.63;7.92;;;;;;;11.09;89.73;99588.59;1727904;82;27383;-51
2023/04/14 06:42:14;;;;;;;13.38;8.35;;;;;;;11.34;89.33;99590.88;1727809;82;25462;-49
2023/04/14 06:44:36;;;;;;;13.40;10.15;;;;;;;11.68;89.90;99586.83;1740015;81;25413;-51
2023/04/14 06:47:02;;;;;;;11.70;8.53;;;;;;;11.96;88.92;99590.56;1740626;82;25559;-53
2023/04/14 06:49:28;;;;;;;14.65;9.60;;;;;;;12.31;87.79;99584.77;1740641;82;25617;-52
2023/04/14 06:51:55;;;;;;;12.70;9.05;;;;;;;12.67;88.00;99581.83;1740601;82;27352;-50
2023/04/14 06:54:21;;;;;;;12.47;8.80;;;;;;;12.91;85.38;99580.23;1740461;82;25427;-53
2023/04/14 06:56:47;;;;;;;12.13;8.68;;;;;;;13.12;84.81;99581.42;1727944;82;25512;-52
2023/04/14 06:59:13;;;;;;;12.47;8.28;;;;;;;13.49;83.00;99584.64;1740618;82;25596;-51
2023/04/14 07:01:40;;;;;;;11.50;7.97;;;;;;;13.78;82.81;99587.56;1740670;82;25393;-50
2023/04/14 07:04:07;;;;;;;13.40;8.25;;;;;;;14.22;81.88;99584.00;1740635;82;27323;-53
2023/04/14 07:06:34;;;;;;;11.25;8.10;;;;;;;14.59;80.47;99586.48;1727804;82;25591;-51
2023/04/14 07:09:00;;;;;;;9.13;7.60;;;;;;;14.82;79.18;99583.34;1740566;82;25203;-51
2023/04/14 07:11:28;;;;;;;8.50;7.25;;;;;;;15.15;78.30;99579.38;1740616;82;25375;-51
2023/04/14 07:13:55;;;;;;;12.90;8.08;;;;;;;15.51;75.56;99574.67;1740639;82;25635;-50
2023/04/14 07:16:21;;;;;;;9.35;6.70;;;;;;;15.77;75.69;99574.02;1740621;82;27318;-52
2023/04/14 07:18:48;;;;;;;8.10;7.08;;;;;;;15.97;74.51;99572.05;1740602;82;25532;-50
2023/04/14 07:21:14;;;;;;;6.90;6.00;;;;;;;16.17;73.03;99585.62;1740602;82;25384;-50
2023/04/14 07:23:41;;;;;;;6.83;6.12;;;;;;;16.34;71.46;99580.25;1740541;82;25672;-53
2023/04/14 07:26:08;;;;;;;6.83;6.12;;;;;;;16.73;73.21;99577.34;1740582;82;25581;-51
2023/04/14 07:28:34;;;;;;;6.40;5.80;;;;;;;17.25;71.99;99577.70;1740595;82;27312;-50
2023/04/14 07:31:09;;;;;;;7.00;6.30;;;;;;;17.44;69.20;99583.00;1740458;82;25798;-50
2023/04/14 07:33:36;;;;;;;6.65;6.00;;;;;;;17.63;68.02;99586.14;1740662;82;25196;-52
2023/04/14 07:36:04;;;;;;;11.63;8.30;;;;;;;17.79;68.01;99579.66;1740562;82;25687;-54
2023/04/14 07:38:31;;;;;;;7.92;6.53;;;;;;;18.18;67.79;99579.28;1740640;82;25607;-51
2023/04/14 07:41:03;;;;;;;10.27;7.50;;;;;;;18.50;66.50;99575.44;1740841;82;27292;-54
2023/04/14 07:43:36;;;;;;;6.85;5.70;;;;;;;18.73;65.67;99584.80;1740115;81;26137;-52
2023/04/14 07:46:05;;;;;;;6.22;5.55;;;;;;;18.98;64.58;99580.86;1740636;81;25540;-53
2023/04/14 07:48:34;;;;;;;5.75;5.25;;;;;;;19.29;63.36;99588.84;1740681;82;25596;-52
2023/04/14 07:51:01;;;;;;;11.93;5.90;;;;;;;19.59;62.51;99585.23;1740756;82;25398;-52
2023/04/14 07:53:28;;;;;;;6.45;5.83;;;;;;;19.86;60.76;99589.66;1740572;82;26439;-53
2023/04/14 07:55:54;;;;;;;6.55;5.40;;;;;;;20.10;60.22;99600.48;1740346;82;25356;-52
2023/04/14 07:58:20;;;;;;;6.05;5.47;;;;;;;20.04;59.19;99595.97;1740555;82;25573;-52
2023/04/14 08:00:47;;;;;;;6.05;5.45;;;;;;;20.24;59.25;99594.98;1740633;82;25604;-51
2023/04/14 08:03:14;;;;;;;6.40;5.80;;;;;;;20.26;57.81;99602.27;1740702;82;25596;-52
2023/04/14 08:05:40;;;;;;;6.22;5.55;;;;;;;19.89;56.73;99603.38;1740616;81;27130;-51
2023/04/14 08:08:12;;;;;;;7.28;5.60;;;;;;;19.83;55.64;99602.78;1740500;82;27249;-53
2023/04/14 08:10:41;;;;;;;8.13;6.10;;;;;;;19.37;55.64;99613.16;1740636;82;25581;-49
2023/04/14 08:13:09;;;;;;;7.53;6.55;;;;;;;19.18;56.71;99611.51;1740737;82;25629;-49
2023/04/14 08:15:35;;;;;;;12.53;7.97;;;;;;;19.30;57.25;99604.91;1740656;82;25655;-50
2023/04/14 08:18:02;;;;;;;7.95;6.80;;;;;;;19.27;56.50;99604.89;1740578;82;27289;-51
2023/04/14 08:20:29;;;;;;;7.00;6.10;;;;;;;19.68;57.42;99607.41;1740469;82;25467;-49
2023/04/14 08:22:57;;;;;;;6.75;6.15;;;;;;;20.12;57.43;99607.13;1740563;82;25462;-54
2023/04/14 08:25:23;;;;;;;7.03;6.33;;;;;;;20.49;56.05;99605.98;1740521;82;27869;-52
2023/04/14 08:27:50;;;;;;;6.35;5.75;;;;;;;20.91;56.23;99607.75;1740573;82;25644;-52
2023/04/14 08:30:17;;;;;;;6.62;5.92;;;;;;;21.31;54.90;99601.53;1740526;82;27545;-54
2023/04/14 08:32:44;;;;;;;6.45;5.65;;;;;;;21.08;52.96;99602.02;1740499;82;25586;-48
2023/04/14 08:35:11;;;;;;;7.22;6.33;;;;;;;20.81;51.99;99605.20;1740503;82;25588;-51
2023/04/14 08:37:37;;;;;;;6.70;6.10;;;;;;;20.38;51.56;99609.33;1740482;82;26269;-49
2023/04/14 08:40:11;;;;;;;7.20;6.50;;;;;;;19.84;52.19;99616.70;1740576;82;25534;-49
2023/04/14 08:42:37;;;;;;;7.12;6.30;;;;;;;19.54;52.91;99608.14;1740553;82;27388;-50
2023/04/14 08:45:08;;;;;;;7.12;6.42;;;;;;;19.58;53.81;99617.16;1740418;82;25587;-52
2023/04/14 08:47:39;;;;;;;6.50;5.90;;;;;;;19.32;52.58;99616.86;1738419;81;25564;-49
2023/04/14 08:50:12;;;;;;;6.87;5.65;;;;;;;19.04;53.78;99612.22;1740452;82;25673;-51
2023/04/14 08:52:41;;;;;;;7.00;5.92;;;;;;;19.11;53.63;99602.48;1740697;82;25387;-51
2023/04/14 08:55:10;;;;;;;7.55;6.35;;;;;;;18.87;53.44;99599.80;1740264;81;27351;-51
2023/04/14 08:57:40;;;;;;;7.37;6.12;;;;;;;18.93;54.54;99607.25;1725503;82;25665;-50
2023/04/14 09:00:10;;;;;;;8.55;6.17;;;;;;;18.92;52.78;99599.44;1738171;82;25608;-52
2023/04/14 09:02:39;;;;;;;6.83;6.12;;;;;;;18.53;53.15;99591.70;1738163;82;25663;-51
2023/04/14 09:05:10;;;;;;;8.08;6.45;;;;;;;18.26;54.13;99594.61;1738203;82;25431;-50
2023/04/14 09:07:39;;;;;;;8.45;6.70;;;;;;;17.99;54.10;99596.11;1738148;82;28405;-50
2023/04/14 09:10:10;;;;;;;6.42;5.83;;;;;;;17.79;54.91;99586.50;1738166;82;25750;-50
2023/04/14 09:12:39;;;;;;;6.40;5.75;;;;;;;17.78;55.36;99591.78;1738168;82;25576;-50
2023/04/14 09:15:09;;;;;;;;;;;;;;;18.32;57.19;99590.94;1740723;82;25675;-51
2023/04/14 09:17:37;;;;;;;9.03;6.25;;;;;;;19.10;55.40;99585.82;1738336;82;25434;-50
2023/04/14 09:20:07;;;;;;;7.35;5.87;;;;;;;20.04;55.90;99610.26;1738172;82;27527;-52
2023/04/14 09:22:35;;;;;;;7.08;6.40;;;;;;;20.42;53.95;99584.61;1738129;82;25414;-51
2023/04/14 09:25:03;;;;;;;7.50;5.80;;;;;;;20.25;51.89;99582.06;1738442;82;25593;-49
2023/04/14 09:27:33;;;;;;;8.15;6.83;;;;;;;19.87;51.56;99583.78;1738310;82;25659;-49
2023/04/14 09:30:04;;;;;;;6.72;6.08;;;;;;;19.42;50.44;99581.85;1725547;82;25563;-50
2023/04/14 09:32:32;;;;;;;8.58;7.20;;;;;;;18.95;51.27;99581.64;1738103;82;27463;-50
2023/04/14 09:34:58;;;;;;;8.15;6.85;;;;;;;19.01;52.51;99575.98;1738019;82;25375;-49
2023/04/14 09:37:26;;;;;;;7.22;6.40;;;;;;;19.36;52.79;99571.84;1738107;82;25796;-50
2023/04/14 09:39:54;;;;;;;9.43;6.00;;;;;;;19.95;53.34;99579.08;1738139;82;25774;-49
2023/04/14 09:42:39;;;;;;;7.80;6.75;;;;;;;20.52;52.54;99581.85;1738159;82;25594;-52
2023/04/14 09:45:10;;;;;;;9.38;6.85;;;;;;;20.64;51.28;99579.92;1738134;82;27484;-49
2023/04/14 09:47:37;;;;;;;9.00;6.62;;;;;;;20.42;50.84;99582.64;1738013;82;25398;-52
2023/04/14 09:50:09;;;;;;;7.85;7.03;;;;;;;20.84;51.83;99568.69;1738056;82;25423;-50
2023/04/14 09:52:40;;;;;;;7.55;5.92;;;;;;;21.47;50.76;99570.86;1738110;82;25667;-49
2023/04/14 09:55:12;;;;;;;6.72;6.03;;;;;;;22.00;49.98;99568.37;1738181;81;25454;-50
2023/04/14 09:57:50;;;;;;;6.78;5.87;;;;;;;22.47;49.69;99572.75;1738095;82;27974;-50
2023/04/14 10:00:23;;;;;;;6.37;5.78;;;;;;;23.29;48.62;99569.73;1737982;82;27158;-50
2023/04/14 10:02:56;;;;;;;7.47;6.45;;;;;;;23.49;45.67;99568.50;1738121;82;25524;-53
2023/04/14 10:05:28;;;;;;;6.50;5.75;;;;;;;23.50;45.05;99570.08;1738177;82;25712;-51
2023/04/14 10:08:00;;;;;;;7.78;5.70;;;;;;;23.57;44.02;99563.07;1708598;82;25411;-50
2023/04/14 10:10:26;;;;;;;5.40;4.90;;;;;;;23.49;43.62;99564.36;1707359;83;27344;-49
2023/04/14 10:12:53;;;;;;;6.72;6.03;;;;;;;23.83;45.15;99562.14;1708551;82;25628;-49
2023/04/14 10:15:26;;;;;;;7.15;6.08;;;;;;;24.04;43.39;99561.02;1708584;84;25474;-52
2023/04/14 10:17:55;;;;;;;6.72;6.05;;;;;;;23.68;42.16;99557.39;1708666;84;25776;-50
2023/04/14 10:20:25;;;;;;;6.20;5.65;;;;;;;23.55;44.23;99561.91;1708686;84;25498;-51
2023/04/14 10:22:55;;;;;;;7.10;6.40;;;;;;;23.45;43.13;99558.12;1708659;84;28365;-50
2023/04/14 10:25:26;;;;;;;7.30;6.60;;;;;;;23.05;43.14;99559.16;1708547;84;25450;-49
2023/04/14 10:27:56;;;;;;;12.30;9.93;;;;;;;22.66;43.16;99561.16;1708590;82;25326;-51
2023/04/14 10:30:26;;;;;;;7.10;6.50;;;;;;;22.55;44.75;99564.00;1708648;82;25983;-51
2023/04/14 10:32:53;;;;;;;7.90;6.60;;;;;;;23.07;44.44;99565.06;1708644;82;25392;-49
2023/04/14 10:35:22;;;;;;;7.35;5.85;;;;;;;23.57;44.37;99557.55;1708610;82;27314;-52
2023/04/14 10:37:53;;;;;;;6.72;6.10;;;;;;;23.95;44.39;99566.31;1708601;84;25390;-51
2023/04/14 10:40:20;;;;;;;8.35;6.97;;;;;;;24.03;42.54;99557.49;1708679;82;25403;-50
2023/04/14 10:42:56;;;;;;;7.75;6.05;;;;;;;23.53;42.04;99567.87;1708623;82;26395;-49
2023/04/14 10:45:24;;;;;;;6.22;5.28;;;;;;;23.08;41.74;99560.52;1708658;84;25459;-50
2023/04/14 10:47:54;;;;;;;6.67;6.05;;;;;;;23.37;43.15;99551.89;1708637;82;27266;-50
2023/04/14 10:50:24;;;;;;;5.65;5.15;;;;;;;23.90;43.17;99552.97;1696090;84;25622;-52
2023/04/14 10:52:55;;;;;;;6.97;5.03;;;;;;;24.54;43.04;99556.09;1708875;84;25362;-51
2023/04/14 10:55:27;;;;;;;6.08;5.47;;;;;;;25.06;40.53;99559.46;1708539;84;25809;-51
2023/04/14 10:58:07;;;;;;;6.03;5.20;;;;;;;25.02;40.83;99554.62;1710920;83;25530;-54
2023/04/14 11:00:39;;;;;;;6.05;5.45;;;;;;;25.31;40.14;99554.22;1711021;83;27384;-50
2023/04/14 11:03:10;;;;;;;5.83;5.33;;;;;;;25.34;38.56;99538.16;1710971;83;25494;-50
2023/04/14 11:05:48;;;;;;;5.92;5.40;;;;;;;25.01;38.71;99557.96;1710822;83;25465;-49
2023/04/14 11:08:36;;;;;;;6.25;5.22;;;;;;;24.60;38.98;99561.31;1710238;82;25689;-49
2023/04/14 11:11:06;;;;;;;5.75;5.22;;;;;;;24.15;39.01;99535.41;1709964;83;25541;-50
2023/04/14 11:13:37;;;;;;;6.50;5.90;;;;;;;23.92;39.15;99541.67;1710120;83;27356;-50
2023/04/14 11:16:07;;;;;;;5.65;4.60;;;;;;;23.48;39.25;99534.61;1710932;83;26262;-50
2023/04/14 11:18:42;;;;;;;;;;;;;;;23.37;39.97;99526.29;1713557;83;25556;-50
2023/04/14 11:21:17;;;;;;;6.00;4.85;;;;;;;23.50;40.29;99525.91;1710976;83;25604;-50
2023/04/14 11:23:44;;;;;;;5.42;4.70;;;;;;;23.27;40.23;99518.33;1711061;83;25636;-51
2023/04/14 11:26:12;;;;;;;5.72;4.92;;;;;;;23.20;39.00;99512.91;1711023;83;27404;-53
2023/04/14 11:28:42;;;;;;;4.97;4.47;;;;;;;23.36;40.64;99521.95;1711089;82;25584;-51
2023/04/14 11:31:12;;;;;;;4.67;4.28;;;;;;;23.72;40.83;99520.87;1711031;82;25456;-51
2023/04/14 11:33:40;;;;;;;4.62;4.22;;;;;;;24.01;39.42;99513.55;1698290;83;26009;-51
2023/04/14 11:36:09;;;;;;;4.67;4.20;;;;;;;24.01;39.39;99517.09;1698704;83;25412;-49
2023/04/14 11:38:40;;;;;;;;;;;;;;;23.68;39.09;99523.69;1713600;82;27965;-50